• Join FlightAware (Why Join?)
  • Login
  • US Flag 
07:35PM EDT


 

Airport Tracker/Info


-or-


 

Live Flight TrackerFlight Track Log ✈ PN6209 ✈ 28-Aug-2013 ✈ ZUJZ / JZH - ZHCC / CGO

Flight Track Log - Related Links

Times and Time Zones

All times are in EDT time to prevent confusion due to time zone crossing. See the PN6209 flight status page for this flight to view local times or setup timezone preferences in your user account.

Time Position Orientation Groundspeed Altitude Reporting Facility
EDT Latitude Longitude Course Direction KTS MPH feet Rate Location/Type
10:54PM 33.0486 104.6221 76° East  Level Estimated
10:55PM 33.0721 104.7398 77° East  Level Estimated
10:56PM 33.0954 104.8575 77° East  Level Estimated
10:57PM 33.1187 104.9753 77° East  Level Estimated
10:58PM 33.1418 105.0932 77° East  Level Estimated
10:59PM 33.1648 105.2111 77° East  Level Estimated
11:00PM 33.1877 105.3291 77° East  Level Estimated
11:01PM 33.2105 105.4471 77° East  Level Estimated
11:02PM 33.2332 105.5652 77° East  Level Estimated
11:03PM 33.2558 105.6834 77° East  Level Estimated
11:04PM 33.2782 105.8017 77° East  Level Estimated
11:05PM 33.3006 105.9199 77° East  Level Estimated
11:06PM 33.3228 106.0383 77° East  Level Estimated
11:07PM 33.3449 106.1567 77° East  Level Estimated
11:08PM 33.3669 106.2752 77° East  Level Estimated
11:09PM 33.3888 106.3937 77° East  Level Estimated
11:10PM 33.4106 106.5123 78° East  Level Estimated
11:11PM 33.4323 106.6309 78° East  Level Estimated
11:12PM 33.4538 106.7496 78° East  Level Estimated
11:13PM 33.4753 106.8684 78° East  Level Estimated
11:14PM 33.4966 106.9873 78° East  Level Estimated
11:15PM 33.5178 107.1061 78° East  Level Estimated
11:16PM 33.5389 107.2251 78° East  Level Estimated
11:17PM 33.5599 107.3441 78° East  Level Estimated
11:18PM 33.5808 107.4631 78° East  Level Estimated
11:19PM 33.6016 107.5823 78° East  Level Estimated
11:20PM 33.6222 107.7014 78° East  Level Estimated
11:21PM 33.6427 107.8207 78° East  Level Estimated
11:22PM 33.6632 107.9399 78° East  Level Estimated
11:23PM 33.6835 108.0593 78° East  Level Estimated
11:24PM 33.7037 108.1787 78° East  Level Estimated
11:25PM 33.7237 108.2981 79° East  Level Estimated
11:26PM 33.7437 108.4177 79° East  Level Estimated
11:27PM 33.7635 108.5372 79° East  Level Estimated
11:28PM 33.7833 108.6569 79° East  Level Estimated
11:29PM 33.8029 108.7765 79° East  Level Estimated
11:30PM 33.8224 108.8963 79° East  Level Estimated
11:31PM 33.8418 109.0161 79° East  Level Estimated
11:32PM 33.8610 109.1359 79° East  Level Estimated
11:33PM 33.8802 109.2558 79° East  Level Estimated
11:34PM 33.8992 109.3757 79° East  Level Estimated
11:35PM 33.9181 109.4957 79° East  Level Estimated
11:36PM 33.9369 109.6158 79° East  Level Estimated
11:37PM 33.9556 109.7359 79° East  Level Estimated
11:38PM 33.9742 109.8561 79° East  Level Estimated
11:39PM 33.9926 109.9763 79° East  Level Estimated
11:40PM 34.0110 110.0965 80° East  Level Estimated
11:41PM 34.0292 110.2169 80° East  Level Estimated
11:42PM 34.0473 110.3372 80° East  Level Estimated
11:43PM 34.0653 110.4576 80° East  Level Estimated
11:44PM 34.0831 110.5781 80° East  Level Estimated
11:45PM 34.1009 110.6986 80° East  Level Estimated
11:46PM 34.1185 110.8192 80° East  Level Estimated
11:47PM 34.1360 110.9398 80° East  Level Estimated
11:48PM 34.1534 111.0605 80° East  Level Estimated
11:49PM 34.1707 111.1812 80° East  Level Estimated
11:50PM 34.1879 111.3020 80° East  Level Estimated
11:51PM 34.2049 111.4228 80° East  Level Estimated
11:52PM 34.2218 111.5437 80° East  Level Estimated
11:53PM 34.2386 111.6646 80° East  Level Estimated
11:54PM 34.2553 111.7856 80° East  Level Estimated
11:55PM 34.2719 111.9066 81° East  Level Estimated
11:56PM 34.2883 112.0276 81° East  Level Estimated
11:57PM 34.3046 112.1487 81° East  Level Estimated
11:58PM 34.3209 112.2699 81° East  Level Estimated
11:59PM 34.3369 112.3911 81° East  Level Estimated
12:00AM 34.3529 112.5123 81° East  Level Estimated
12:01AM 34.3688 112.6336 81° East  Level Estimated
12:02AM 34.3845 112.7550 81° East  Level Estimated
12:03AM 34.4001 112.8763 81° East  Level Estimated
12:04AM 34.4156 112.9978 81° East  Level Estimated
12:05AM 34.4310 113.1192 81° East  Level Estimated
12:06AM 34.4462 113.2408 81° East  Level Estimated
12:07AM 34.4613 113.3623 81° East  Level Estimated
12:08AM 34.4763 113.4839 81° East  Level Estimated
12:09AM 34.4912 113.6056 82° East  Level Estimated
12:10AM 34.5060 113.7273 82° East  Level Estimated
12:11AM 34.5197 113.8409 82° East  Level Estimated
12:12AM 34.5197 113.8409 338° Northwest  Level Estimated
12:13AM 34.5197 113.8409 338° Northwest  Level Estimated
12:14AM 34.5197 113.8409 338° Northwest  Level Estimated
12:15AM 34.5197 113.8409 338° Northwest  Level Estimated
12:16AM 34.5197 113.8409 338° Northwest  Level Estimated
12:17AM 34.5197 113.8409 338° Northwest  Level Estimated
12:18AM 34.5197 113.8409 338° Northwest  Level Estimated
12:19AM 34.5197 113.8409 338° Northwest  Level Estimated
12:20AM 34.5197 113.8409 338° Northwest  Level Estimated
12:21AM 34.5197 113.8409 338° Northwest  Level Estimated